KTOL/TOL METAR and TAF weather

Enter ICAO airport designator
Station Type Date Time Source
KTOL METAR 2022/11/27 09:41 UTC NOAA

KTOL 270941Z AUTO 11004KT 10SM BKN017 OVC070 07/01 A2964 RMK AO2 T00670006


Station Type Date Time Source
KTOL Decoded METAR 2022/11/27 09:41 UTC NOAA

TOLEDO EXPRESS AIRPORT, OH, United States (KTOL) 41-35N 083-48W 210M
Nov 27, 2022 - 04:41 AM EST / 2022.11.27 0941 UTC
Wind: from the ESE (110 degrees) at 5 MPH (4 KT):0
Visibility: 10 mile(s):0
Sky conditions: overcast
Temperature: 44.1 F (6.7 C)
Dew Point: 33.1 F (0.6 C)
Relative Humidity: 65%
Pressure (altimeter): 29.64 in. Hg (1003 hPa)
ob: KTOL 270941Z AUTO 11004KT 10SM BKN017 OVC070 07/01 A2964 RMK AO2 T00670006
cycle: 9

Station Type Date Time Source
KTOL TAF 2022/11/27 10:53 UTC NOAA

TAF
AMD KTOL 270953Z 2710/2806 VRB04KT P6SM OVC050
TEMPO 2710/2711 P6SM OVC015
FM271100 VRB03KT 3SM -RA BR OVC015
FM271400 06006KT 1SM RA BR OVC003
FM272200 34012G24KT 1SM SHRA

Example: see airport list